Time;durP1;ratioP1;P1;durP2;ratioP2;P2;SDS_P1;SDS_P2;PMS_P1;PMS_P2;Temp;Humidity;BMP_temperature;BMP_pressure;BME280_temperature;BME280_humidity;BME280_pressure;Samples;Min_cycle;Max_cycle;Signal;HPM_P1;HPM_P2
2023/07/05 00:01:31;;;;;;;7.80;5.60;;;;;;;19.24;68.82;95931.66;5045708;28;20199;-72
2023/07/05 00:03:56;;;;;;;8.87;5.20;;;;;;;19.35;68.16;95931.59;5045915;28;20167;-72
2023/07/05 00:06:22;;;;;;;4.90;4.00;;;;;;;19.26;69.08;95919.09;5045782;28;20457;-72
2023/07/05 00:08:47;;;;;;;5.57;4.13;;;;;;;19.38;69.02;95917.19;5045553;28;20213;-71
2023/07/05 00:11:13;;;;;;;9.53;5.07;;;;;;;19.39;68.42;95910.88;5045547;28;20342;-72
2023/07/05 00:13:38;;;;;;;6.00;5.40;;;;;;;19.46;68.54;95917.34;5045373;28;20171;-71
2023/07/05 00:16:05;;;;;;;6.90;4.70;;;;;;;19.48;69.22;95919.88;5045620;28;20167;-72
2023/07/05 00:18:31;;;;;;;8.47;5.50;;;;;;;19.47;68.82;95913.72;5045114;28;20170;-72
2023/07/05 00:21:05;;;;;;;8.27;4.60;;;;;;;19.36;68.31;95911.16;5045231;28;21035;-72
2023/07/05 00:23:33;;;;;;;13.03;5.80;;;;;;;19.23;68.93;95917.53;5045461;28;20634;-71
2023/07/05 00:25:59;;;;;;;17.70;6.70;;;;;;;19.17;69.58;95917.22;5045428;28;20461;-72
2023/07/05 00:28:24;;;;;;;9.40;4.80;;;;;;;18.73;71.14;95922.66;5045752;28;20418;-74
2023/07/05 00:30:50;;;;;;;10.40;5.20;;;;;;;19.12;69.90;95914.13;5045160;28;20265;-73
2023/07/05 00:33:16;;;;;;;16.70;5.80;;;;;;;19.20;69.50;95919.59;5045598;28;20797;-72
2023/07/05 00:35:52;;;;;;;6.03;4.00;;;;;;;19.23;69.55;95922.03;5045468;28;20749;-72
2023/07/05 00:38:18;;;;;;;8.80;4.70;;;;;;;19.32;68.88;95920.34;5045583;28;20229;-72
2023/07/05 00:40:44;;;;;;;13.97;5.30;;;;;;;19.40;68.35;95926.72;5044950;28;20445;-72
2023/07/05 00:43:11;;;;;;;10.27;4.90;;;;;;;19.38;68.75;95926.00;5045236;28;20886;-72
2023/07/05 00:45:54;;;;;;;6.60;4.90;;;;;;;19.43;68.94;95921.09;5045128;28;20456;-72
2023/07/05 00:48:35;;;;;;;9.93;5.13;;;;;;;19.54;69.04;95917.53;5031679;28;20410;-71
2023/07/05 00:51:04;;;;;;;26.30;6.50;;;;;;;19.41;69.66;95925.72;5024958;28;20767;-72
2023/07/05 00:53:30;;;;;;;9.43;4.93;;;;;;;19.34;69.83;95927.22;5025245;28;20441;-71
2023/07/05 00:56:04;;;;;;;11.67;6.60;;;;;;;19.30;70.19;95928.50;5025168;28;20434;-72
2023/07/05 00:58:30;;;;;;;8.00;5.90;;;;;;;19.18;70.15;95922.41;5025093;28;20236;-72
2023/07/05 01:00:56;;;;;;;10.00;5.10;;;;;;;19.17;69.54;95922.53;5024880;28;20503;-72
2023/07/05 01:03:25;;;;;;;7.70;5.67;;;;;;;19.27;69.02;95930.56;5025111;28;20414;-70
2023/07/05 01:05:55;;;;;;;9.37;5.23;;;;;;;19.25;67.83;95928.03;5024793;28;20219;-71
2023/07/05 01:08:20;;;;;;;11.63;5.67;;;;;;;19.17;67.86;95918.06;5025106;28;20553;-72
2023/07/05 01:10:59;;;;;;;8.10;5.07;;;;;;;18.93;68.86;95920.16;5024662;28;20571;-72
2023/07/05 01:13:35;;;;;;;18.50;6.17;;;;;;;18.91;68.95;95911.47;5025209;28;20535;-71
2023/07/05 01:16:10;;;;;;;9.40;5.00;;;;;;;18.88;69.30;95914.41;5025467;28;20758;-71
2023/07/05 01:19:23;;;;;;;19.13;6.30;;;;;;;18.91;68.94;95891.03;5025360;28;20457;-72
2023/07/05 01:22:00;;;;;;;7.30;5.43;;;;;;;19.12;68.87;95888.34;5025315;28;20872;-72
2023/07/05 01:25:00;;;;;;;9.30;5.00;;;;;;;18.80;69.31;95885.78;5025324;28;20911;-73
2023/07/05 01:27:36;;;;;;;10.10;4.93;;;;;;;18.87;69.28;95894.09;5017640;28;20533;-72
2023/07/05 01:30:21;;;;;;;15.80;6.17;;;;;;;18.75;69.44;95898.59;5026395;28;20528;-72
2023/07/05 01:33:08;;;;;;;8.13;5.03;;;;;;;18.49;69.87;95892.81;5028740;28;20414;-72
2023/07/05 01:35:41;;;;;;;7.07;5.10;;;;;;;18.27;71.06;95889.28;5028662;28;20867;-71
2023/07/05 01:38:06;;;;;;;7.63;5.47;;;;;;;18.10;71.17;95887.19;5029366;28;20413;-73
2023/07/05 01:40:32;;;;;;;9.03;5.37;;;;;;;17.99;71.50;95886.25;5028761;28;20947;-72
2023/07/05 01:43:03;;;;;;;8.90;5.17;;;;;;;18.12;71.06;95896.72;5028610;28;20557;-72
2023/07/05 01:45:41;;;;;;;6.73;4.60;;;;;;;18.06;71.90;95889.25;5028260;28;20210;-73
2023/07/05 01:48:15;;;;;;;8.23;5.10;;;;;;;18.34;71.17;95889.63;5040480;28;20431;-72
2023/07/05 01:50:51;;;;;;;17.00;4.90;;;;;;;18.55;70.50;95887.00;5047907;28;20429;-72
2023/07/05 01:53:24;;;;;;;14.73;5.57;;;;;;;18.57;70.04;95893.03;5048225;28;20486;-72
2023/07/05 01:56:20;;;;;;;11.10;6.10;;;;;;;18.58;69.98;95897.38;5048386;28;20811;-72
2023/07/05 01:58:47;;;;;;;50.10;8.73;;;;;;;18.67;69.78;95896.59;5048290;28;20426;-73
2023/07/05 02:01:15;;;;;;;29.87;7.20;;;;;;;18.70;70.10;95891.00;5048166;28;20511;-72
2023/07/05 02:03:41;;;;;;;15.27;7.00;;;;;;;18.85;69.64;95902.22;5048120;28;20413;-72
2023/07/05 02:06:09;;;;;;;13.43;5.30;;;;;;;18.78;69.72;95896.56;5048126;28;20456;-73
2023/07/05 02:08:36;;;;;;;13.13;5.60;;;;;;;18.70;70.04;95900.81;5048703;28;20965;-72
2023/07/05 02:11:02;;;;;;;7.03;5.10;;;;;;;18.77;70.71;95902.84;5047736;28;20524;-72
2023/07/05 02:13:28;;;;;;;7.07;4.60;;;;;;;18.77;70.58;95899.34;5047853;28;20526;-72
2023/07/05 02:15:53;;;;;;;9.57;5.47;;;;;;;18.97;70.38;95898.50;5047761;28;20554;-72
2023/07/05 02:18:19;;;;;;;20.00;8.27;;;;;;;18.79;70.13;95900.91;5047960;28;20824;-72
2023/07/05 02:20:45;;;;;;;11.53;5.80;;;;;;;18.72;70.47;95899.69;5047853;28;20272;-72
2023/07/05 02:23:10;;;;;;;10.53;5.30;;;;;;;18.77;70.17;95897.53;5057371;28;20177;-71
2023/07/05 02:25:36;;;;;;;9.27;5.57;;;;;;;18.79;70.15;95881.44;5048134;28;20339;-71
2023/07/05 02:28:08;;;;;;;9.40;5.47;;;;;;;18.35;70.34;95865.59;5047933;28;20186;-73
2023/07/05 02:30:40;;;;;;;10.47;5.47;;;;;;;18.04;72.00;95861.13;5047614;28;20190;-72
2023/07/05 02:33:06;;;;;;;10.20;5.50;;;;;;;18.10;72.38;95850.03;5047599;28;20902;-72
2023/07/05 02:35:39;;;;;;;8.20;5.40;;;;;;;17.88;72.73;95840.31;5047272;28;20413;-70
2023/07/05 02:38:05;;;;;;;6.83;5.40;;;;;;;17.83;72.50;95840.69;5047409;28;20666;-72
2023/07/05 02:40:32;;;;;;;16.20;6.40;;;;;;;17.85;72.83;95835.25;5046330;28;20503;-73
2023/07/05 02:42:59;;;;;;;6.90;6.07;;;;;;;17.75;73.42;95832.50;5047588;28;20413;-73
2023/07/05 02:45:28;;;;;;;7.13;5.43;;;;;;;17.73;72.92;95839.72;5047322;28;20459;-73
2023/07/05 02:47:54;;;;;;;12.60;6.23;;;;;;;18.17;72.22;95852.03;5037169;28;21035;-73
2023/07/05 02:50:20;;;;;;;13.43;5.93;;;;;;;18.31;71.59;95842.91;5027201;28;20434;-72
2023/07/05 02:52:46;;;;;;;35.30;7.17;;;;;;;18.50;71.02;95841.38;5027514;28;20207;-71
2023/07/05 02:55:11;;;;;;;17.20;8.27;;;;;;;18.56;71.39;95843.50;5027381;28;21309;-72
2023/07/05 02:57:36;;;;;;;27.00;7.10;;;;;;;18.55;71.16;95849.78;5027568;28;20199;-72
2023/07/05 03:00:06;;;;;;;27.57;7.00;;;;;;;18.66;70.55;95844.41;5027022;28;20777;-73
2023/07/05 03:02:32;;;;;;;26.97;7.20;;;;;;;18.30;71.61;95851.84;5027357;28;20688;-73
2023/07/05 03:04:57;;;;;;;18.00;6.17;;;;;;;18.45;71.01;95848.88;5027138;28;20503;-72
2023/07/05 03:07:23;;;;;;;9.17;5.47;;;;;;;18.26;72.01;95849.56;5027070;28;20438;-71
2023/07/05 03:09:48;;;;;;;14.97;7.13;;;;;;;18.18;72.24;95852.88;5026603;28;20218;-72
2023/07/05 03:12:17;;;;;;;7.63;6.23;;;;;;;18.21;72.50;95855.25;5027187;28;20179;-72
2023/07/05 03:14:43;;;;;;;8.40;5.87;;;;;;;18.07;72.81;95861.75;5026765;28;20228;-72
2023/07/05 03:17:08;;;;;;;9.30;5.97;;;;;;;17.97;72.68;95845.69;5026866;28;20770;-72
2023/07/05 03:19:33;;;;;;;10.80;8.17;;;;;;;17.93;73.54;95841.63;5026806;28;20200;-72
2023/07/05 03:21:59;;;;;;;26.97;7.90;;;;;;;18.11;73.15;95857.00;5026871;28;20234;-73
2023/07/05 03:24:24;;;;;;;15.23;6.90;;;;;;;18.27;71.75;95845.97;5026452;28;20545;-72
2023/07/05 03:26:53;;;;;;;14.23;7.10;;;;;;;18.18;71.81;95884.75;5026490;28;20511;-73
2023/07/05 03:29:18;;;;;;;11.13;6.73;;;;;;;18.28;71.66;95896.28;5026412;28;20637;-72
2023/07/05 03:31:44;;;;;;;23.93;6.57;;;;;;;18.40;71.39;95910.34;5026236;28;20429;-72
2023/07/05 03:34:09;;;;;;;16.47;6.63;;;;;;;18.46;71.57;95932.94;5026521;28;20227;-72
2023/07/05 03:36:34;;;;;;;8.27;5.50;;;;;;;18.39;71.78;95952.03;5026430;28;20164;-72
2023/07/05 03:39:00;;;;;;;9.17;5.53;;;;;;;18.56;71.41;95957.75;5026203;28;20593;-72
2023/07/05 03:41:26;;;;;;;6.47;5.57;;;;;;;18.53;71.65;95950.06;5026625;28;20630;-72
2023/07/05 03:43:58;;;;;;;7.80;5.83;;;;;;;18.33;72.52;95959.66;5026135;28;20232;-71
2023/07/05 03:46:23;;;;;;;13.33;6.40;;;;;;;18.38;72.20;95976.91;5025958;28;20520;-72
2023/07/05 03:48:49;;;;;;;7.70;5.00;;;;;;;18.30;71.33;96015.69;5043713;28;20953;-72
2023/07/05 03:51:17;;;;;;;11.67;6.30;;;;;;;18.25;72.48;96010.75;5045897;28;20200;-72
2023/07/05 03:53:43;;;;;;;10.47;5.00;;;;;;;18.29;71.35;96009.53;5045632;28;20189;-72
2023/07/05 03:56:10;;;;;;;11.27;5.40;;;;;;;18.37;71.84;95990.31;5045839;28;20405;-72
2023/07/05 03:58:36;;;;;;;10.57;6.23;;;;;;;18.50;72.23;96003.47;5045833;28;20167;-72
2023/07/05 04:01:14;;;;;;;6.80;3.60;;;;;;;18.43;72.13;95994.31;5045354;28;20444;-71
2023/07/05 04:03:39;;;;;;;6.03;3.07;;;;;;;18.38;71.98;95987.53;5045561;28;20413;-72
2023/07/05 04:06:05;;;;;;;13.90;3.20;;;;;;;18.37;71.39;95987.66;5045830;28;20500;-72
2023/07/05 04:08:30;;;;;;;11.43;3.33;;;;;;;18.29;71.54;95982.16;5045730;28;20175;-72
2023/07/05 04:10:56;;;;;;;9.23;3.20;;;;;;;18.33;71.63;95995.06;5045493;28;20197;-72
2023/07/05 04:13:21;;;;;;;10.63;2.97;;;;;;;18.33;71.55;95992.41;5045837;28;20174;-72
2023/07/05 04:15:47;;;;;;;9.50;4.10;;;;;;;18.30;71.58;95992.63;5054461;28;20265;-72
2023/07/05 04:18:12;;;;;;;11.40;2.60;;;;;;;18.31;71.29;95977.56;5051121;28;20185;-71
2023/07/05 04:20:38;;;;;;;6.27;2.50;;;;;;;18.28;71.20;95973.31;5022049;28;20253;-71
2023/07/05 04:23:03;;;;;;;9.07;3.10;;;;;;;17.93;72.77;95953.13;5024947;28;20167;-71
2023/07/05 04:25:29;;;;;;;4.20;1.80;;;;;;;17.94;72.96;95949.50;5014736;28;20192;-72
2023/07/05 04:27:54;;;;;;;12.00;2.70;;;;;;;17.87;73.38;95958.91;5004053;28;20172;-72
2023/07/05 04:30:20;;;;;;;16.60;3.30;;;;;;;17.81;73.65;95954.13;5005357;28;20188;-73
2023/07/05 04:32:45;;;;;;;3.67;1.90;;;;;;;17.67;74.73;95949.00;5005621;28;20657;-72
2023/07/05 04:35:10;;;;;;;8.20;2.73;;;;;;;17.58;75.24;95940.00;5005739;28;20196;-71
2023/07/05 04:37:36;;;;;;;9.53;3.83;;;;;;;17.65;75.07;95949.16;5005763;28;20172;-72
2023/07/05 04:40:01;;;;;;;12.83;3.30;;;;;;;17.79;74.86;95937.44;5005932;28;20278;-72
2023/07/05 04:42:27;;;;;;;12.43;3.80;;;;;;;17.88;74.36;95934.09;5006202;28;20176;-72
2023/07/05 04:44:52;;;;;;;75.93;10.80;;;;;;;18.09;74.30;95934.13;5005898;28;20192;-72
2023/07/05 04:47:17;;;;;;;12.73;3.30;;;;;;;18.03;74.54;95953.22;5016893;28;20262;-73
2023/07/05 04:49:45;;;;;;;14.33;3.70;;;;;;;18.04;73.39;95951.41;5045198;28;20222;-73
2023/07/05 04:52:10;;;;;;;4.67;2.50;;;;;;;18.05;73.99;95948.66;5045491;28;20628;-72
2023/07/05 04:54:36;;;;;;;5.60;2.77;;;;;;;17.95;74.11;95948.53;5045411;28;20420;-73
2023/07/05 04:57:01;;;;;;;8.40;3.10;;;;;;;18.12;73.32;95939.22;5045601;28;20483;-72
2023/07/05 04:59:29;;;;;;;36.07;4.63;;;;;;;17.98;73.63;95937.66;5041220;28;20179;-73
2023/07/05 05:01:55;;;;;;;17.20;3.90;;;;;;;18.17;73.59;95938.84;5017679;28;20175;-72
2023/07/05 05:04:20;;;;;;;23.00;5.23;;;;;;;18.20;73.63;95942.06;5007928;28;20429;-73
2023/07/05 05:06:45;;;;;;;24.90;4.97;;;;;;;18.33;73.39;95944.59;5022153;28;20207;-73
2023/07/05 05:09:11;;;;;;;20.27;3.60;;;;;;;18.23;73.64;95945.44;5026473;28;20206;-72
2023/07/05 05:11:36;;;;;;;55.30;7.17;;;;;;;18.23;73.97;95943.63;5021359;28;20208;-71
2023/07/05 05:14:01;;;;;;;37.63;6.10;;;;;;;18.30;74.02;95942.16;5006907;28;21104;-73
2023/07/05 05:16:27;;;;;;;13.57;3.70;;;;;;;18.29;73.70;95942.31;5007201;28;20262;-74
2023/07/05 05:18:52;;;;;;;19.60;4.07;;;;;;;18.40;74.21;95952.88;5017982;28;20190;-74
2023/07/05 05:21:18;;;;;;;15.00;4.40;;;;;;;18.59;73.04;95949.53;5026307;28;20290;-73
2023/07/05 05:23:43;;;;;;;15.80;3.80;;;;;;;19.12;71.45;95944.19;5026179;28;20175;-73
2023/07/05 05:26:08;;;;;;;16.30;5.10;;;;;;;19.76;70.10;95936.97;5026298;28;20209;-72
2023/07/05 05:28:34;;;;;;;15.83;4.73;;;;;;;19.88;68.86;95938.53;5026164;28;20167;-72
2023/07/05 05:31:04;;;;;;;6.93;3.03;;;;;;;20.08;67.57;95952.75;5021297;28;20214;-71
2023/07/05 05:33:29;;;;;;;8.83;3.23;;;;;;;19.79;68.33;95953.50;5022546;28;20187;-75
2023/07/05 05:35:55;;;;;;;14.63;5.00;;;;;;;20.52;65.18;95946.06;5019876;28;20418;-72
2023/07/05 05:38:20;;;;;;;48.40;7.70;;;;;;;20.71;65.21;95944.41;5018749;28;20274;-74
2023/07/05 05:40:49;;;;;;;4.70;3.17;;;;;;;20.77;65.26;95949.19;5031976;28;20199;-72
2023/07/05 05:43:15;;;;;;;15.40;4.30;;;;;;;20.77;64.75;95943.88;5025464;28;20175;-74
2023/07/05 05:45:41;;;;;;;9.10;3.87;;;;;;;20.39;65.97;95950.84;5025476;28;20977;-73
2023/07/05 05:48:07;;;;;;;27.73;6.80;;;;;;;20.86;64.81;95943.00;5025879;28;20197;-72
2023/07/05 05:50:33;;;;;;;11.33;3.30;;;;;;;20.96;64.72;95948.34;5025650;28;20533;-72
2023/07/05 05:52:58;;;;;;;9.47;3.47;;;;;;;20.51;65.58;95941.72;5025600;28;20198;-72
2023/07/05 05:55:23;;;;;;;35.57;8.40;;;;;;;20.14;66.86;95940.69;5025735;28;20221;-73
2023/07/05 05:57:49;;;;;;;11.60;3.60;;;;;;;20.41;65.98;95951.56;5025945;28;20746;-71
2023/07/05 06:00:14;;;;;;;4.03;2.90;;;;;;;20.08;67.02;95948.28;5025369;28;20234;-72
2023/07/05 06:02:40;;;;;;;9.13;3.50;;;;;;;20.39;66.45;95950.84;5026206;28;20336;-73
2023/07/05 06:05:05;;;;;;;17.10;4.60;;;;;;;20.80;65.45;95951.56;5025649;28;20664;-73
2023/07/05 06:07:31;;;;;;;10.33;4.17;;;;;;;21.27;63.83;95951.63;5025942;28;20178;-73
2023/07/05 06:09:56;;;;;;;6.53;3.47;;;;;;;21.08;63.11;95955.19;5023766;28;20274;-73
2023/07/05 06:12:22;;;;;;;8.50;4.47;;;;;;;21.30;63.01;95948.66;5025149;28;20179;-73
2023/07/05 06:14:47;;;;;;;5.90;3.40;;;;;;;21.42;62.83;95951.22;5024695;28;20172;-72
2023/07/05 06:17:12;;;;;;;3.80;3.20;;;;;;;21.19;63.09;95948.88;5025720;28;20189;-73
2023/07/05 06:19:38;;;;;;;8.53;3.90;;;;;;;21.02;63.69;95952.25;5025873;28;20266;-73
2023/07/05 06:22:04;;;;;;;18.13;5.40;;;;;;;21.24;63.23;95957.28;5014914;28;20182;-73
2023/07/05 06:24:31;;;;;;;25.87;5.47;;;;;;;21.42;62.69;95953.88;5007870;28;20636;-73
2023/07/05 06:26:57;;;;;;;18.30;5.53;;;;;;;21.59;62.29;95950.47;5007898;28;20183;-73
2023/07/05 06:29:23;;;;;;;27.57;5.97;;;;;;;21.66;61.86;95946.22;5008093;28;20417;-73
2023/07/05 06:31:48;;;;;;;14.93;4.50;;;;;;;21.97;60.42;95940.59;5007925;28;20374;-73
2023/07/05 06:34:13;;;;;;;15.67;4.27;;;;;;;22.10;60.10;95962.44;5040220;28;20202;-70
2023/07/05 06:36:40;;;;;;;4.43;3.70;;;;;;;22.25;59.71;95962.78;5047120;28;20182;-72
2023/07/05 06:39:05;;;;;;;12.80;4.03;;;;;;;22.70;58.60;95964.63;5039564;28;20553;-74
2023/07/05 06:41:31;;;;;;;12.10;3.83;;;;;;;22.68;58.48;95952.34;5033378;28;20445;-73
2023/07/05 06:43:56;;;;;;;4.33;3.03;;;;;;;22.48;59.29;95957.03;5028139;28;20178;-72
2023/07/05 06:46:21;;;;;;;8.83;3.40;;;;;;;22.73;58.31;95960.78;5044614;28;20197;-73
2023/07/05 06:48:49;;;;;;;17.10;5.30;;;;;;;22.86;57.62;95950.53;5030101;28;20171;-72
2023/07/05 06:51:14;;;;;;;7.93;3.70;;;;;;;22.59;58.40;95946.94;5028238;28;20202;-73
2023/07/05 06:53:40;;;;;;;9.30;3.60;;;;;;;22.72;58.39;95946.56;5028335;28;20426;-73
2023/07/05 06:56:05;;;;;;;17.60;4.33;;;;;;;22.60;59.09;95953.97;5029528;28;20172;-73
2023/07/05 06:58:30;;;;;;;10.63;3.73;;;;;;;22.90;58.00;95951.06;5042572;28;20515;-73
2023/07/05 07:00:56;;;;;;;12.70;4.50;;;;;;;23.27;57.17;95958.91;5046757;28;20202;-73
2023/07/05 07:03:22;;;;;;;17.03;6.10;;;;;;;23.45;56.67;95954.31;5046709;28;20201;-72
2023/07/05 07:05:51;;;;;;;23.60;4.87;;;;;;;23.38;56.26;95955.97;5050311;28;20730;-71
2023/07/05 07:08:17;;;;;;;6.80;4.87;;;;;;;23.77;55.33;95947.53;5046582;28;20186;-72
2023/07/05 07:10:42;;;;;;;5.43;3.83;;;;;;;23.87;55.61;95955.44;5046643;28;20456;-73
2023/07/05 07:13:08;;;;;;;11.57;3.53;;;;;;;23.95;54.67;95951.94;5047259;28;20671;-72
2023/07/05 07:15:34;;;;;;;5.73;2.97;;;;;;;24.04;54.15;95950.97;5028791;28;20197;-75
2023/07/05 07:17:59;;;;;;;6.17;3.07;;;;;;;24.00;53.68;95957.66;5046680;28;20205;-74
2023/07/05 07:20:25;;;;;;;11.97;3.70;;;;;;;23.99;54.36;95942.59;5046259;28;20260;-74
2023/07/05 07:22:51;;;;;;;7.03;3.30;;;;;;;23.85;54.42;95944.88;5046602;28;20489;-73
2023/07/05 07:25:16;;;;;;;5.77;3.70;;;;;;;24.08;54.24;95946.97;5046377;28;20492;-73
2023/07/05 07:27:42;;;;;;;16.87;3.80;;;;;;;24.24;53.84;95949.72;5046591;28;20170;-73
2023/07/05 07:30:07;;;;;;;22.40;5.20;;;;;;;24.35;53.38;95955.75;5046437;28;20676;-73
2023/07/05 07:32:33;;;;;;;14.63;3.63;;;;;;;24.38;53.50;95952.75;5046134;28;20175;-73
2023/07/05 07:34:58;;;;;;;8.63;4.03;;;;;;;24.38;52.91;95948.25;5030909;28;20928;-72
2023/07/05 07:37:24;;;;;;;13.13;5.23;;;;;;;24.17;53.53;95950.53;5026239;28;20183;-73
2023/07/05 07:39:49;;;;;;;8.70;3.93;;;;;;;24.54;52.83;95957.34;5026146;28;20324;-73
2023/07/05 07:42:14;;;;;;;11.47;3.70;;;;;;;24.32;52.13;95950.75;5026366;28;20305;-72
2023/07/05 07:44:40;;;;;;;4.17;3.23;;;;;;;24.21;51.93;95946.50;5026139;28;20855;-73
2023/07/05 07:47:06;;;;;;;29.27;6.80;;;;;;;23.96;53.08;95950.97;5030101;28;20171;-73
2023/07/05 07:49:32;;;;;;;26.20;4.60;;;;;;;24.05;52.92;95955.34;5046669;28;20504;-72
2023/07/05 07:51:57;;;;;;;12.40;3.77;;;;;;;23.59;53.38;95966.31;5046433;28;20401;-73
2023/07/05 07:54:26;;;;;;;6.23;3.63;;;;;;;23.18;54.46;95959.84;5046672;28;20827;-73
2023/07/05 07:56:54;;;;;;;10.27;3.43;;;;;;;23.12;54.81;95957.78;5046889;28;20177;-72
2023/07/05 07:59:19;;;;;;;6.43;3.10;;;;;;;23.10;55.70;95965.97;5037624;28;20459;-71
2023/07/05 08:01:45;;;;;;;8.70;4.20;;;;;;;23.12;56.00;95955.94;5023733;28;20434;-74
2023/07/05 08:04:12;;;;;;;14.93;4.30;;;;;;;23.31;56.45;95965.63;5017601;28;20199;-74
2023/07/05 08:06:38;;;;;;;25.00;5.90;;;;;;;23.67;54.34;95960.16;5016690;28;20527;-74
2023/07/05 08:09:06;;;;;;;4.10;3.37;;;;;;;24.02;52.29;95950.28;5013329;28;20450;-72
2023/07/05 08:11:33;;;;;;;5.20;4.10;;;;;;;24.29;50.84;95943.88;5019789;28;20446;-73
2023/07/05 08:13:58;;;;;;;3.73;3.33;;;;;;;24.42;50.40;95941.53;5017376;28;20529;-73
2023/07/05 08:16:23;;;;;;;8.33;3.37;;;;;;;24.07;50.63;95937.25;5016498;28;20662;-73
2023/07/05 08:18:49;;;;;;;26.03;5.93;;;;;;;24.02;51.00;95936.88;5016831;28;20645;-73
2023/07/05 08:21:14;;;;;;;11.33;3.50;;;;;;;24.24;51.20;95941.66;5025091;28;20204;-72
2023/07/05 08:23:43;;;;;;;7.53;3.30;;;;;;;23.82;50.83;95931.78;5014709;28;20249;-73
2023/07/05 08:26:12;;;;;;;19.97;3.80;;;;;;;24.02;50.57;95935.03;5018563;28;20915;-73
2023/07/05 08:28:38;;;;;;;13.40;4.00;;;;;;;24.10;50.85;95936.94;5025351;28;20501;-73
2023/07/05 08:31:05;;;;;;;7.07;3.70;;;;;;;24.03;51.31;95934.06;5025063;28;20442;-74
2023/07/05 08:33:32;;;;;;;4.20;3.23;;;;;;;23.89;50.96;95937.34;5025764;28;20236;-72
2023/07/05 08:36:27;;;;;;;14.30;4.03;;;;;;;23.64;51.95;95941.72;5027310;28;20414;-72
2023/07/05 08:38:54;;;;;;;18.80;5.70;;;;;;;23.25;52.92;95950.19;5024968;28;20421;-73
2023/07/05 08:41:35;;;;;;;3.27;2.83;;;;;;;23.19;52.89;95943.63;5025278;28;20506;-73
2023/07/05 08:44:06;;;;;;;5.57;3.00;;;;;;;23.33;52.17;95955.59;5031888;28;20417;-73
2023/07/05 08:46:32;;;;;;;6.63;3.30;;;;;;;23.36;52.25;95959.78;5045336;28;20546;-73
2023/07/05 08:49:06;;;;;;;27.93;5.90;;;;;;;23.51;51.43;95950.19;5026290;28;20454;-74
2023/07/05 08:51:32;;;;;;;16.00;4.60;;;;;;;23.44;51.47;95960.69;5026054;28;20457;-75
2023/07/05 08:54:02;;;;;;;7.50;3.30;;;;;;;23.63;51.16;95961.47;5026052;28;20451;-75
2023/07/05 08:56:39;;;;;;;4.90;3.40;;;;;;;23.68;50.99;95975.22;5025682;28;20199;-73
2023/07/05 08:59:20;;;;;;;12.53;4.80;;;;;;;24.17;49.96;95972.81;5025315;28;20800;-73
2023/07/05 09:01:47;;;;;;;7.70;3.23;;;;;;;24.41;49.39;95971.22;5025519;28;20422;-74
2023/07/05 09:04:22;;;;;;;14.90;3.37;;;;;;;24.42;48.14;95970.19;5025239;28;20428;-74
2023/07/05 09:06:54;;;;;;;4.20;2.53;;;;;;;24.38;48.19;95972.38;5025380;28;20461;-74
2023/07/05 09:09:36;;;;;;;6.60;2.37;;;;;;;24.55;47.68;95975.13;5024883;28;20516;-73
2023/07/05 09:12:17;;;;;;;2.87;2.10;;;;;;;24.73;46.49;95978.50;5025737;28;20426;-74
2023/07/05 09:15:09;;;;;;;3.87;2.43;;;;;;;24.71;46.83;95983.22;5025144;28;20414;-73
2023/07/05 09:17:40;;;;;;;4.30;2.77;;;;;;;24.24;47.26;95979.22;5025038;28;20917;-73
2023/07/05 09:20:30;;;;;;;3.00;1.50;;;;;;;23.87;48.31;95999.16;5024465;28;20923;-75
2023/07/05 09:23:01;;;;;;;2.80;2.10;;;;;;;23.55;49.57;95989.06;5024676;28;21184;-74
2023/07/05 09:25:31;;;;;;;3.53;1.20;;;;;;;23.12;49.83;95988.06;5025020;28;21276;-73
2023/07/05 09:28:11;;;;;;;61.17;7.33;;;;;;;22.93;49.69;96005.09;5018922;28;20441;-73
2023/07/05 09:30:36;;;;;;;10.63;2.50;;;;;;;22.71;50.69;96010.94;5021100;28;20465;-73
2023/07/05 09:33:07;;;;;;;8.80;1.77;;;;;;;22.67;50.60;95998.84;5020152;28;20440;-75
2023/07/05 09:35:36;;;;;;;3.50;1.20;;;;;;;22.50;50.45;96001.34;5023280;28;20179;-74
2023/07/05 09:38:27;;;;;;;2.17;1.20;;;;;;;22.17;51.39;96002.78;5024341;28;20410;-74
2023/07/05 09:41:07;;;;;;;2.57;1.53;;;;;;;22.32;51.52;96000.47;4943598;29;20523;-74
2023/07/05 09:43:36;;;;;;;4.90;1.50;;;;;;;22.40;50.80;96019.28;4943403;29;20865;-72
2023/07/05 09:46:25;;;;;;;45.80;5.37;;;;;;;22.23;51.09;96025.41;4941289;29;20481;-72
2023/07/05 09:48:51;;;;;;;18.87;3.57;;;;;;;22.17;51.20;96026.81;4944146;28;20584;-72
2023/07/05 09:51:17;;;;;;;12.80;2.17;;;;;;;22.25;51.39;96029.63;4945576;28;21038;-72
2023/07/05 09:53:45;;;;;;;9.80;3.07;;;;;;;22.31;51.50;96028.19;4947254;29;20201;-73
2023/07/05 09:56:14;;;;;;;5.60;1.60;;;;;;;22.00;54.32;96039.16;4944577;29;20437;-73
2023/07/05 09:58:44;;;;;;;54.43;6.80;;;;;;;22.17;56.49;96032.19;4947115;29;20433;-72
2023/07/05 10:01:18;;;;;;;9.43;1.90;;;;;;;21.56;58.93;96049.53;4947798;28;20449;-71
2023/07/05 10:03:49;;;;;;;12.10;2.40;;;;;;;21.48;59.63;96060.09;4947373;29;21151;-72
2023/07/05 10:06:18;;;;;;;14.10;3.03;;;;;;;21.13;61.37;96080.16;4946972;29;20638;-73
2023/07/05 10:08:46;;;;;;;8.30;1.80;;;;;;;20.77;61.75;96087.88;4944042;29;20433;-72
2023/07/05 10:11:33;;;;;;;5.20;1.93;;;;;;;20.68;61.04;96083.34;4946801;29;20442;-73
2023/07/05 10:14:05;;;;;;;12.50;2.50;;;;;;;20.62;62.05;96094.56;4947129;29;20410;-72
2023/07/05 10:17:03;;;;;;;3.27;1.80;;;;;;;20.31;63.05;96091.91;4943968;29;20465;-71
2023/07/05 10:19:42;;;;;;;11.67;2.23;;;;;;;20.65;62.33;96094.31;5025517;28;20445;-70
2023/07/05 10:22:26;;;;;;;9.87;2.60;;;;;;;20.90;62.69;96083.09;5028048;28;20421;-73
2023/07/05 10:24:57;;;;;;;8.97;3.23;;;;;;;21.34;63.52;96070.19;5020628;28;21145;-72
2023/07/05 10:27:28;;;;;;;7.97;2.00;;;;;;;22.12;61.70;96058.50;5018308;28;20505;-74
2023/07/05 10:30:01;;;;;;;5.33;2.03;;;;;;;22.34;57.61;96068.84;5026861;28;20454;-73
2023/07/05 10:32:28;;;;;;;5.73;2.60;;;;;;;22.67;59.11;96063.03;5027054;28;20899;-74
2023/07/05 10:34:55;;;;;;;3.50;1.97;;;;;;;22.88;57.78;96071.63;5026637;28;20414;-74
2023/07/05 10:37:33;;;;;;;9.23;2.27;;;;;;;22.90;57.20;96063.44;5024324;28;20437;-74
2023/07/05 10:40:09;;;;;;;2.30;1.70;;;;;;;23.24;55.36;96050.22;5026983;28;20516;-73
2023/07/05 10:42:45;;;;;;;13.23;2.67;;;;;;;23.18;53.52;96069.59;5025615;28;20473;-74
2023/07/05 10:45:14;;;;;;;4.70;1.67;;;;;;;23.18;53.15;96067.75;5024772;28;20550;-74
2023/07/05 10:47:41;;;;;;;6.80;2.23;;;;;;;23.08;53.33;96063.47;5010262;28;20430;-73
2023/07/05 10:50:09;;;;;;;13.77;2.77;;;;;;;23.16;51.52;96061.72;5026886;28;20422;-73
2023/07/05 10:52:37;;;;;;;2.10;1.50;;;;;;;23.30;52.04;96065.69;5042307;28;20449;-73
2023/07/05 10:55:28;;;;;;;3.97;1.80;;;;;;;23.52;52.13;96068.88;5048182;28;20414;-73
2023/07/05 10:58:13;;;;;;;9.80;2.40;;;;;;;23.73;49.63;96079.25;5049328;28;20445;-72
2023/07/05 11:00:45;;;;;;;7.13;2.07;;;;;;;23.71;47.61;96079.41;5047288;28;20894;-73
2023/07/05 11:03:17;;;;;;;2.87;2.13;;;;;;;23.52;47.01;96072.38;5045035;28;20500;-72
2023/07/05 11:05:46;;;;;;;3.57;2.10;;;;;;;23.62;46.20;96073.16;5027240;28;21235;-74
2023/07/05 11:08:23;;;;;;;11.20;2.47;;;;;;;23.50;45.23;96070.88;5027197;28;20552;-73
2023/07/05 11:10:50;;;;;;;2.53;1.83;;;;;;;23.51;45.58;96072.56;5026612;28;20536;-73
2023/07/05 11:13:17;;;;;;;2.50;1.83;;;;;;;23.55;44.65;96069.41;5009237;28;20475;-73
2023/07/05 11:15:45;;;;;;;5.53;1.77;;;;;;;23.49;44.63;96067.34;5027139;28;20934;-73
2023/07/05 11:18:22;;;;;;;2.70;1.90;;;;;;;23.42;44.65;96064.44;5027302;28;20414;-73
2023/07/05 11:20:54;;;;;;;2.73;1.90;;;;;;;23.49;44.08;96059.31;5026517;28;20545;-74
2023/07/05 11:23:41;;;;;;;3.50;1.83;;;;;;;23.56;43.68;96051.50;5027169;28;20410;-73
2023/07/05 11:26:07;;;;;;;2.33;1.73;;;;;;;23.50;43.58;96050.28;5026611;28;21299;-73
2023/07/05 11:28:40;;;;;;;41.17;6.30;;;;;;;23.66;43.05;96052.25;5027143;28;20502;-73
2023/07/05 11:31:07;;;;;;;33.43;4.70;;;;;;;23.72;42.43;96038.22;5026670;28;20255;-73
2023/07/05 11:33:33;;;;;;;59.33;8.23;;;;;;;23.70;42.71;96040.22;5026710;28;20449;-73
2023/07/05 11:36:05;;;;;;;11.33;2.87;;;;;;;23.82;42.20;96043.50;5026575;28;20438;-73
2023/07/05 11:38:36;;;;;;;3.47;2.00;;;;;;;23.78;42.10;96051.00;5026666;28;20667;-73